createdAt,value
2023-08-02T00:02:19.429Z,16.71
2023-08-02T00:04:52.790Z,16.69
2023-08-02T00:07:28.875Z,16.69
2023-08-02T00:10:04.584Z,16.71
2023-08-02T00:12:37.882Z,16.56
2023-08-02T00:15:12.666Z,16.64
2023-08-02T00:17:45.873Z,16.69
2023-08-02T00:20:19.145Z,16.69
2023-08-02T00:22:52.328Z,16.71
2023-08-02T00:25:26.934Z,16.89
2023-08-02T00:28:00.361Z,16.87
2023-08-02T00:30:46.404Z,16.89
2023-08-02T00:33:19.664Z,16.96
2023-08-02T00:35:54.257Z,16.96
2023-08-02T00:38:27.410Z,17.10
2023-08-02T00:41:04.448Z,17.20
2023-08-02T00:43:41.752Z,17.07
2023-08-02T00:46:19.410Z,17.09
2023-08-02T00:48:53.199Z,17.07
2023-08-02T00:51:26.476Z,17.07
2023-08-02T00:54:03.398Z,17.05
2023-08-02T00:56:37.053Z,17.12
2023-08-02T00:59:10.146Z,17.10
2023-08-02T01:01:48.806Z,17.13
2023-08-02T01:04:22.609Z,17.16
2023-08-02T01:07:05.177Z,17.16
2023-08-02T01:09:44.149Z,17.16
2023-08-02T01:12:21.736Z,17.20
2023-08-02T01:15:00.119Z,17.24
2023-08-02T01:17:35.401Z,17.30
2023-08-02T01:20:11.010Z,17.26
2023-08-02T01:22:44.554Z,17.27
2023-08-02T01:25:17.799Z,17.30
2023-08-02T01:27:58.727Z,17.27
2023-08-02T01:30:37.230Z,17.30
2023-08-02T01:33:11.277Z,17.26
2023-08-02T01:35:45.840Z,17.29
2023-08-02T01:38:19.889Z,17.27
2023-08-02T01:40:52.986Z,17.31
2023-08-02T01:43:26.173Z,17.33
2023-08-02T01:45:59.335Z,17.36
2023-08-02T01:48:33.213Z,17.34
2023-08-02T01:51:08.068Z,17.37
2023-08-02T01:53:41.215Z,17.44
2023-08-02T01:56:14.398Z,17.46
2023-08-02T01:58:48.167Z,17.44
2023-08-02T02:01:21.368Z,17.43
2023-08-02T02:03:54.577Z,17.47
2023-08-02T02:06:29.114Z,17.36
2023-08-02T02:09:02.273Z,17.47
2023-08-02T02:11:35.404Z,17.40
2023-08-02T02:14:08.577Z,17.34
2023-08-02T02:16:41.942Z,17.46
2023-08-02T02:19:15.361Z,17.44
2023-08-02T02:21:49.970Z,17.46
2023-08-02T02:24:23.069Z,17.50
2023-08-02T02:26:56.445Z,17.36
2023-08-02T02:29:29.564Z,17.41
2023-08-02T02:32:02.798Z,17.54
2023-08-02T02:34:35.963Z,17.51
2023-08-02T02:37:10.518Z,17.51
2023-08-02T02:39:43.670Z,17.54
2023-08-02T02:42:16.845Z,17.47
2023-08-02T02:44:49.963Z,17.41
2023-08-02T02:47:23.125Z,17.50
2023-08-02T02:49:56.245Z,17.53
2023-08-02T02:52:30.800Z,17.48
2023-08-02T02:55:03.976Z,17.47
2023-08-02T02:57:37.213Z,17.50
2023-08-02T03:00:11.963Z,17.55
2023-08-02T03:02:45.249Z,17.60
2023-08-02T03:05:20.816Z,17.57
2023-08-02T03:07:55.372Z,17.60
2023-08-02T03:10:28.591Z,17.54
2023-08-02T03:13:01.774Z,17.61
2023-08-02T03:15:34.918Z,17.63
2023-08-02T03:18:09.926Z,17.71
2023-08-02T03:20:44.288Z,17.70
2023-08-02T03:23:18.801Z,17.70
2023-08-02T03:25:52.044Z,17.66
2023-08-02T03:28:25.261Z,17.53
2023-08-02T03:30:58.605Z,17.46
2023-08-02T03:33:31.929Z,17.51
2023-08-02T03:36:05.303Z,17.51
2023-08-02T03:38:40.286Z,17.44
2023-08-02T03:41:13.506Z,17.50
2023-08-02T03:43:46.626Z,17.50
2023-08-02T03:46:19.794Z,17.48
2023-08-02T03:48:52.943Z,17.47
2023-08-02T03:51:27.364Z,17.57
2023-08-02T03:54:02.567Z,17.60
2023-08-02T03:56:35.804Z,17.64
2023-08-02T03:59:08.915Z,17.68
2023-08-02T04:01:42.223Z,17.68
2023-08-02T04:04:15.630Z,17.75
2023-08-02T04:06:48.888Z,17.81
2023-08-02T04:09:23.383Z,17.80
2023-08-02T04:11:56.488Z,17.90
2023-08-02T04:14:29.740Z,17.91
2023-08-02T04:17:02.846Z,17.82
2023-08-02T04:19:36.012Z,17.81
2023-08-02T04:22:09.150Z,17.84
2023-08-02T04:24:43.737Z,17.77
2023-08-02T04:27:16.909Z,17.70
2023-08-02T04:29:51.335Z,17.80
2023-08-02T04:32:24.712Z,17.80
2023-08-02T04:34:57.913Z,17.73
2023-08-02T04:37:31.830Z,17.58
2023-08-02T04:40:10.243Z,17.43
2023-08-02T04:42:43.696Z,17.31
2023-08-02T04:45:17.010Z,17.24
2023-08-02T04:47:50.139Z,17.33
2023-08-02T04:50:23.330Z,17.36
2023-08-02T04:52:56.507Z,17.36
2023-08-02T04:55:30.982Z,17.40
2023-08-02T04:58:04.128Z,17.44
2023-08-02T05:00:37.453Z,17.47
2023-08-02T05:03:10.627Z,17.43
2023-08-02T05:05:43.852Z,17.47
2023-08-02T05:08:17.071Z,17.46
2023-08-02T05:10:51.671Z,17.41
2023-08-02T05:13:25.666Z,17.41
2023-08-02T05:15:58.879Z,17.36
2023-08-02T05:18:32.022Z,17.36
2023-08-02T05:21:12.228Z,17.36
2023-08-02T05:23:45.778Z,17.33
2023-08-02T05:26:24.470Z,17.30
2023-08-02T05:29:00.280Z,17.37
2023-08-02T05:31:33.486Z,17.37
2023-08-02T05:34:06.934Z,17.39
2023-08-02T05:36:40.151Z,17.36
2023-08-02T05:39:13.335Z,17.37
2023-08-02T05:41:50.173Z,17.39
2023-08-02T05:44:23.374Z,17.39
2023-08-02T05:46:56.536Z,17.48
2023-08-02T05:49:29.673Z,17.50
2023-08-02T05:52:02.923Z,17.54
2023-08-02T05:54:36.071Z,17.55
2023-08-02T05:57:13.055Z,17.60
2023-08-02T05:59:46.209Z,17.54
2023-08-02T06:02:20.005Z,17.50
2023-08-02T06:04:53.172Z,17.36
2023-08-02T06:07:26.374Z,17.40
2023-08-02T06:09:59.644Z,17.43
2023-08-02T06:12:34.179Z,17.44
2023-08-02T06:15:08.812Z,17.41
2023-08-02T06:17:42.010Z,17.50
2023-08-02T06:20:15.163Z,17.54
2023-08-02T06:22:48.426Z,17.58
2023-08-02T06:25:21.632Z,17.68
2023-08-02T06:27:56.195Z,17.70
2023-08-02T06:30:29.407Z,17.78
2023-08-02T06:33:02.561Z,17.80
2023-08-02T06:35:36.058Z,17.78
2023-08-02T06:38:09.367Z,17.95
2023-08-02T06:40:42.522Z,18.04
2023-08-02T06:43:17.064Z,18.12
2023-08-02T06:45:50.312Z,18.22
2023-08-02T06:48:26.480Z,18.25
2023-08-02T06:51:02.393Z,18.26
2023-08-02T06:53:35.562Z,18.53
2023-08-02T06:56:12.830Z,18.59
2023-08-02T06:58:47.389Z,18.74
2023-08-02T07:01:23.339Z,18.86
2023-08-02T07:03:56.523Z,18.96
2023-08-02T07:06:29.728Z,19.08
2023-08-02T07:09:02.932Z,19.26
2023-08-02T07:11:37.697Z,19.65
2023-08-02T07:14:12.430Z,19.78
2023-08-02T07:16:45.595Z,19.77
2023-08-02T07:19:18.777Z,19.71
2023-08-02T07:21:51.991Z,20.33
2023-08-02T07:24:25.121Z,20.39
2023-08-02T07:26:58.210Z,20.06
2023-08-02T07:29:32.725Z,19.95
2023-08-02T07:32:06.758Z,19.95
2023-08-02T07:34:39.936Z,20.04
2023-08-02T07:37:13.109Z,20.02
2023-08-02T07:39:46.340Z,19.86
2023-08-02T07:42:20.039Z,20.18
2023-08-02T07:45:06.790Z,20.29
2023-08-02T07:47:41.024Z,20.26
2023-08-02T07:50:14.470Z,20.29
2023-08-02T07:52:47.635Z,20.16
2023-08-02T07:55:20.884Z,20.00
2023-08-02T07:57:55.125Z,19.98
2023-08-02T08:00:29.661Z,20.16
2023-08-02T08:03:04.560Z,20.04
2023-08-02T08:05:37.863Z,19.99
2023-08-02T08:08:10.983Z,19.95
2023-08-02T08:10:44.131Z,19.88
2023-08-02T08:13:17.264Z,19.82
2023-08-02T08:15:51.789Z,19.69
2023-08-02T08:18:24.907Z,19.61
2023-08-02T08:20:58.137Z,19.62
2023-08-02T08:23:32.245Z,19.65
2023-08-02T08:26:05.474Z,19.54
2023-08-02T08:28:38.603Z,19.65
2023-08-02T08:31:13.195Z,19.75
2023-08-02T08:33:46.601Z,19.83
2023-08-02T08:36:19.797Z,19.72
2023-08-02T08:38:52.936Z,19.67
2023-08-02T08:41:26.277Z,19.75
2023-08-02T08:44:04.358Z,19.96
2023-08-02T08:46:40.196Z,20.15
2023-08-02T08:49:13.307Z,20.42
2023-08-02T08:51:54.843Z,20.52
2023-08-02T08:54:30.778Z,20.60
2023-08-02T08:57:07.657Z,21.23
2023-08-02T08:59:41.789Z,21.34
2023-08-02T09:02:17.434Z,21.20
2023-08-02T09:04:53.851Z,21.32
2023-08-02T09:07:27.080Z,21.34
2023-08-02T09:10:02.619Z,21.07
2023-08-02T09:12:46.936Z,21.10
2023-08-02T09:15:20.252Z,21.12
2023-08-02T09:17:56.411Z,21.31
2023-08-02T09:20:32.214Z,21.34
2023-08-02T09:23:16.824Z,21.27
2023-08-02T09:25:50.040Z,21.27
2023-08-02T09:28:24.702Z,21.38
2023-08-02T09:30:57.854Z,21.48
2023-08-02T09:33:50.431Z,21.81
2023-08-02T09:36:28.606Z,22.70
2023-08-02T09:39:04.859Z,22.51
2023-08-02T09:41:59.075Z,22.60
2023-08-02T09:44:34.133Z,22.23
2023-08-02T09:47:11.470Z,22.54
2023-08-02T09:50:04.741Z,23.24
2023-08-02T09:52:41.847Z,23.56
2023-08-02T09:55:14.998Z,24.16
2023-08-02T09:57:50.155Z,24.61
2023-08-02T10:00:23.801Z,25.21
2023-08-02T10:02:57.234Z,25.29
2023-08-02T10:05:32.938Z,24.87
2023-08-02T10:08:08.225Z,24.54
2023-08-02T10:10:47.234Z,24.68
2023-08-02T10:13:26.100Z,24.91
2023-08-02T10:16:00.234Z,25.36
2023-08-02T10:18:36.474Z,25.04
2023-08-02T10:21:12.765Z,24.58
2023-08-02T10:23:46.574Z,24.43
2023-08-02T10:26:20.810Z,23.67
2023-08-02T10:28:55.204Z,23.15
2023-08-02T10:31:28.991Z,23.00
2023-08-02T10:34:02.209Z,22.74
2023-08-02T10:36:56.721Z,23.39
2023-08-02T10:39:53.726Z,23.75
2023-08-02T10:42:30.800Z,23.58
2023-08-02T10:45:15.790Z,23.38
2023-08-02T10:47:49.089Z,24.13
2023-08-02T10:50:46.126Z,24.56
2023-08-02T10:53:21.173Z,24.58
2023-08-02T10:56:10.084Z,25.43
2023-08-02T10:58:52.045Z,25.49
2023-08-02T11:01:25.390Z,25.33
2023-08-02T11:03:59.280Z,25.66
2023-08-02T11:06:36.265Z,25.84
2023-08-02T11:09:11.114Z,24.89
2023-08-02T11:11:45.794Z,25.36
2023-08-02T11:14:28.114Z,25.83
2023-08-02T11:17:13.297Z,25.83
2023-08-02T11:22:27.027Z,25.74
2023-08-02T11:25:01.696Z,26.79
2023-08-02T11:30:12.070Z,26.03
2023-08-02T11:32:49.005Z,26.21
2023-08-02T11:35:23.254Z,25.69
2023-08-02T11:37:56.513Z,25.43
2023-08-02T11:40:38.267Z,25.18
2023-08-02T11:43:16.173Z,24.87
2023-08-02T11:45:49.341Z,24.21
2023-08-02T11:48:25.398Z,21.78
2023-08-02T11:51:03.056Z,20.85
2023-08-02T11:53:37.049Z,21.20
2023-08-02T11:56:11.804Z,21.38
2023-08-02T11:58:45.920Z,21.32
2023-08-02T12:01:20.545Z,21.04
2023-08-02T12:03:58.770Z,21.07
2023-08-02T12:06:47.677Z,20.70
2023-08-02T12:09:22.354Z,20.72
2023-08-02T12:11:56.893Z,20.90
2023-08-02T12:14:30.358Z,20.66
2023-08-02T12:17:04.625Z,20.63
2023-08-02T12:19:44.103Z,20.80
2023-08-02T12:22:20.858Z,20.93
2023-08-02T12:25:08.241Z,21.21
2023-08-02T12:27:42.848Z,21.52
2023-08-02T12:30:17.596Z,21.71
2023-08-02T12:32:50.865Z,21.68
2023-08-02T12:35:24.119Z,21.54
2023-08-02T12:37:59.348Z,21.90
2023-08-02T12:40:32.680Z,22.87
2023-08-02T12:43:07.166Z,23.14
2023-08-02T12:45:40.334Z,23.58
2023-08-02T12:48:13.481Z,23.69
2023-08-02T12:50:47.384Z,23.72
2023-08-02T12:53:20.510Z,23.37
2023-08-02T12:55:56.255Z,23.19
2023-08-02T12:58:31.195Z,22.98
2023-08-02T13:01:04.437Z,22.68
2023-08-02T13:03:37.827Z,22.51
2023-08-02T13:06:11.127Z,22.33
2023-08-02T13:08:44.302Z,22.14
2023-08-02T13:11:17.705Z,22.03
2023-08-02T13:13:52.219Z,21.85
2023-08-02T13:16:25.521Z,21.90
2023-08-02T13:18:58.695Z,22.37
2023-08-02T13:21:32.003Z,22.68
2023-08-02T13:24:07.248Z,23.61
2023-08-02T13:26:43.250Z,23.93
2023-08-02T13:29:18.660Z,24.37
2023-08-02T13:31:55.406Z,25.07
2023-08-02T13:34:28.588Z,25.26
2023-08-02T13:37:01.969Z,25.36
2023-08-02T13:39:35.995Z,24.91
2023-08-02T13:42:10.002Z,24.69
2023-08-02T13:44:44.604Z,24.57
2023-08-02T13:47:17.845Z,24.03
2023-08-02T13:49:51.233Z,23.77
2023-08-02T13:52:24.502Z,23.80
2023-08-02T13:54:57.686Z,23.75
2023-08-02T13:57:33.380Z,23.82
2023-08-02T14:00:09.439Z,24.64
2023-08-02T14:02:42.813Z,25.28
2023-08-02T14:05:16.874Z,25.69
2023-08-02T14:07:50.292Z,26.14
2023-08-02T14:10:23.491Z,26.16
2023-08-02T14:12:59.495Z,25.87
2023-08-02T14:15:34.332Z,26.01
2023-08-02T14:18:07.642Z,26.13
2023-08-02T14:20:41.064Z,25.60
2023-08-02T14:23:14.223Z,25.69
2023-08-02T14:25:48.100Z,25.33
2023-08-02T14:28:23.743Z,25.90
2023-08-02T14:30:58.545Z,26.69
2023-08-02T14:33:32.285Z,26.84
2023-08-02T14:36:05.982Z,26.84
2023-08-02T14:38:40.480Z,26.00
2023-08-02T14:41:13.670Z,25.14
2023-08-02T14:43:47.295Z,24.46
2023-08-02T14:46:21.811Z,24.18
2023-08-02T14:48:55.110Z,23.99
2023-08-02T14:51:28.229Z,23.16
2023-08-02T14:54:12.746Z,21.20
2023-08-02T14:56:47.036Z,21.51
2023-08-02T14:59:20.462Z,21.81
2023-08-02T15:01:55.059Z,22.16
2023-08-02T15:04:28.327Z,22.72
2023-08-02T15:07:01.471Z,22.61
2023-08-02T15:09:34.651Z,23.08
2023-08-02T15:12:08.779Z,23.10
2023-08-02T15:14:41.878Z,23.59
2023-08-02T15:17:16.423Z,24.21
2023-08-02T15:19:49.654Z,24.51
2023-08-02T15:22:22.779Z,24.27
2023-08-02T15:24:55.881Z,24.57
2023-08-02T15:27:29.114Z,24.78
2023-08-02T15:30:02.374Z,24.58
2023-08-02T15:32:39.352Z,24.68
2023-08-02T15:35:14.332Z,24.02
2023-08-02T15:37:49.479Z,23.55
2023-08-02T15:40:22.654Z,23.42
2023-08-02T15:42:55.789Z,23.22
2023-08-02T15:45:30.629Z,23.14
2023-08-02T15:48:05.599Z,23.10
2023-08-02T15:50:38.843Z,23.02
2023-08-02T15:53:11.965Z,23.05
2023-08-02T15:55:45.150Z,23.04
2023-08-02T15:58:18.265Z,23.21
2023-08-02T16:00:51.484Z,23.29
2023-08-02T16:03:26.096Z,23.77
2023-08-02T16:05:59.227Z,23.96
2023-08-02T16:08:32.357Z,24.46
2023-08-02T16:11:06.102Z,24.03
2023-08-02T16:13:39.215Z,23.79
2023-08-02T16:16:12.545Z,23.56
2023-08-02T16:18:47.100Z,23.42
2023-08-02T16:21:20.185Z,23.16
2023-08-02T16:23:53.401Z,22.80
2023-08-02T16:26:26.776Z,22.81
2023-08-02T16:28:59.894Z,22.75
2023-08-02T16:31:33.132Z,22.68
2023-08-02T16:34:07.746Z,22.70
2023-08-02T16:36:41.019Z,21.66
2023-08-02T16:39:14.250Z,20.57
2023-08-02T16:41:47.616Z,20.33
2023-08-02T16:44:20.804Z,20.37
2023-08-02T16:46:53.969Z,20.50
2023-08-02T16:49:28.459Z,20.62
2023-08-02T16:52:01.588Z,20.66
2023-08-02T16:54:34.789Z,20.66
2023-08-02T16:57:08.429Z,20.67
2023-08-02T16:59:41.669Z,20.70
2023-08-02T17:02:14.939Z,20.60
2023-08-02T17:04:49.487Z,20.59
2023-08-02T17:07:22.633Z,20.66
2023-08-02T17:09:55.830Z,20.46
2023-08-02T17:12:29.084Z,19.93
2023-08-02T17:15:02.240Z,19.53
2023-08-02T17:17:35.612Z,19.21
2023-08-02T17:20:11.918Z,18.99
2023-08-02T17:22:45.188Z,19.14
2023-08-02T17:25:18.477Z,19.21
2023-08-02T17:27:54.181Z,19.71
2023-08-02T17:30:29.218Z,19.82
2023-08-02T17:33:02.551Z,19.96
2023-08-02T17:35:37.150Z,19.92
2023-08-02T17:38:12.661Z,19.98
2023-08-02T17:40:46.648Z,20.23
2023-08-02T17:43:20.041Z,20.43
2023-08-02T17:45:53.195Z,20.97
2023-08-02T17:48:26.656Z,21.23
2023-08-02T17:51:01.569Z,20.90
2023-08-02T17:53:35.346Z,20.59
2023-08-02T17:56:08.602Z,20.40
2023-08-02T17:58:41.858Z,20.44
2023-08-02T18:01:17.168Z,20.40
2023-08-02T18:03:52.249Z,20.34
2023-08-02T18:06:27.686Z,20.33
2023-08-02T18:09:00.863Z,20.26
2023-08-02T18:11:34.045Z,20.19
2023-08-02T18:14:07.225Z,20.19
2023-08-02T18:16:40.457Z,20.15
2023-08-02T18:19:13.758Z,20.13
2023-08-02T18:21:51.883Z,20.23
2023-08-02T18:24:26.956Z,20.25
2023-08-02T18:27:02.479Z,20.36
2023-08-02T18:29:35.612Z,20.40
2023-08-02T18:32:09.155Z,20.42
2023-08-02T18:34:47.118Z,20.34
2023-08-02T18:37:21.677Z,20.40
2023-08-02T18:39:54.872Z,20.50
2023-08-02T18:42:28.112Z,20.49
2023-08-02T18:45:01.284Z,20.54
2023-08-02T18:47:34.502Z,20.46
2023-08-02T18:50:08.101Z,20.39
2023-08-02T18:52:42.647Z,20.33
2023-08-02T18:55:15.858Z,20.33
2023-08-02T18:57:48.994Z,20.19
2023-08-02T19:00:23.874Z,19.75
2023-08-02T19:02:58.405Z,19.34
2023-08-02T19:05:33.511Z,19.16
2023-08-02T19:08:08.179Z,19.11
2023-08-02T19:10:41.413Z,19.20
2023-08-02T19:13:18.057Z,19.21
2023-08-02T19:15:51.284Z,19.20
2023-08-02T19:18:24.713Z,19.18
2023-08-02T19:20:57.905Z,19.30
2023-08-02T19:23:37.435Z,19.37
2023-08-02T19:26:13.170Z,19.35
2023-08-02T19:28:47.265Z,19.39
2023-08-02T19:31:21.262Z,19.39
2023-08-02T19:33:54.432Z,19.37
2023-08-02T19:36:28.098Z,19.35
2023-08-02T19:39:02.585Z,19.32
2023-08-02T19:41:37.829Z,19.38
2023-08-02T19:44:11.365Z,19.46
2023-08-02T19:46:46.106Z,19.48
2023-08-02T19:49:19.263Z,19.53
2023-08-02T19:51:52.853Z,19.50
2023-08-02T19:54:27.429Z,19.53
2023-08-02T19:57:02.694Z,19.51
2023-08-02T19:59:36.291Z,19.51
2023-08-02T20:02:22.487Z,19.48
2023-08-02T20:04:55.629Z,19.44
2023-08-02T20:07:28.799Z,19.38
2023-08-02T20:10:34.689Z,19.46
2023-08-02T20:13:15.988Z,19.51
2023-08-02T20:15:49.487Z,19.51
2023-08-02T20:18:22.776Z,19.55
2023-08-02T20:20:57.607Z,19.43
2023-08-02T20:23:37.835Z,19.20
2023-08-02T20:26:15.649Z,19.10
2023-08-02T20:28:53.866Z,19.06
2023-08-02T20:31:31.623Z,18.99
2023-08-02T20:34:11.116Z,18.94
2023-08-02T20:36:46.178Z,18.93
2023-08-02T20:39:20.290Z,18.92
2023-08-02T20:41:55.053Z,18.94
2023-08-02T20:44:28.225Z,19.03
2023-08-02T20:47:01.404Z,19.06
2023-08-02T20:49:36.771Z,19.14
2023-08-02T20:52:11.921Z,19.16
2023-08-02T20:54:45.500Z,19.18
2023-08-02T20:57:19.955Z,19.28
2023-08-02T20:59:53.127Z,19.32
2023-08-02T21:02:26.442Z,19.34
2023-08-02T21:04:59.618Z,19.26
2023-08-02T21:07:32.816Z,19.10
2023-08-02T21:10:13.581Z,19.08
2023-08-02T21:12:55.867Z,19.14
2023-08-02T21:15:31.584Z,19.20
2023-08-02T21:18:05.015Z,19.27
2023-08-02T21:20:43.552Z,19.11
2023-08-02T21:23:20.512Z,18.70
2023-08-02T21:25:56.624Z,18.70
2023-08-02T21:28:32.170Z,18.66
2023-08-02T21:31:05.307Z,18.73
2023-08-02T21:33:38.540Z,18.82
2023-08-02T21:36:14.957Z,18.86
2023-08-02T21:38:48.148Z,18.87
2023-08-02T21:41:21.944Z,18.79
2023-08-02T21:44:00.168Z,18.72
2023-08-02T21:46:36.710Z,18.33
2023-08-02T21:49:12.933Z,17.13
2023-08-02T21:51:46.864Z,16.87
2023-08-02T21:54:20.184Z,16.72
2023-08-02T21:56:56.750Z,16.73
2023-08-02T21:59:31.346Z,16.83
2023-08-02T22:02:05.761Z,16.89
2023-08-02T22:04:38.967Z,16.95
2023-08-02T22:07:15.623Z,17.03
2023-08-02T22:09:55.277Z,17.06
2023-08-02T22:12:32.502Z,17.09
2023-08-02T22:15:08.750Z,17.12
2023-08-02T22:17:42.134Z,17.07
2023-08-02T22:20:15.425Z,17.06
2023-08-02T22:22:48.783Z,17.00
2023-08-02T22:25:21.927Z,17.03
2023-08-02T22:27:55.058Z,17.00
2023-08-02T22:30:29.688Z,16.93
2023-08-02T22:33:03.160Z,16.93
2023-08-02T22:35:36.470Z,16.97
2023-08-02T22:38:10.062Z,16.93
2023-08-02T22:40:45.111Z,16.96
2023-08-02T22:43:18.246Z,16.96
2023-08-02T22:45:52.912Z,16.95
2023-08-02T22:51:02.334Z,17.03
2023-08-02T22:53:35.876Z,17.09
2023-08-02T22:56:10.711Z,17.19
2023-08-02T22:58:44.325Z,17.23
2023-08-02T23:01:22.263Z,17.23
2023-08-02T23:03:55.619Z,17.34
2023-08-02T23:06:29.070Z,17.37
2023-08-02T23:09:02.594Z,17.33
2023-08-02T23:11:43.085Z,17.27
2023-08-02T23:14:19.623Z,17.19
2023-08-02T23:16:54.162Z,17.03
2023-08-02T23:19:29.869Z,17.02
2023-08-02T23:22:03.215Z,16.99
2023-08-02T23:24:36.837Z,16.96
2023-08-02T23:27:23.721Z,16.99
2023-08-02T23:29:56.899Z,17.05
2023-08-02T23:32:31.395Z,17.05
2023-08-02T23:35:04.886Z,16.99
2023-08-02T23:37:38.163Z,17.03
2023-08-02T23:40:12.130Z,17.03
2023-08-02T23:42:45.297Z,17.05
2023-08-02T23:45:18.476Z,17.06
2023-08-02T23:47:53.094Z,17.05
2023-08-02T23:50:26.303Z,17.07
2023-08-02T23:52:59.489Z,17.03
2023-08-02T23:55:32.662Z,16.93
2023-08-02T23:58:05.905Z,16.93
